Time;durP1;ratioP1;P1;durP2;ratioP2;P2;SDS_P1;SDS_P2;PMS_P1;PMS_P2;Temp;Humidity;BMP_temperature;BMP_pressure;BME280_temperature;BME280_humidity;BME280_pressure;Samples;Min_cycle;Max_cycle;Signal;HPM_P1;HPM_P2
2022/10/09 00:01:31;;;;;;;11.90;6.50;;;;;;;11.45;79.76;100450.27;103714;1294;138447;-80
2022/10/09 00:04:01;;;;;;;11.10;6.60;;;;;;;11.44;79.82;100451.67;103806;1282;106683;-79
2022/10/09 00:06:31;;;;;;;13.10;6.10;;;;;;;11.45;79.71;100455.49;103702;1289;138587;-79
2022/10/09 00:09:01;;;;;;;11.20;5.60;;;;;;;11.45;79.65;100460.88;103747;1289;96470;-79
2022/10/09 00:11:31;;;;;;;12.20;5.90;;;;;;;11.46;79.56;100464.52;103704;1284;138436;-79
2022/10/09 00:14:09;;;;;;;11.50;5.60;;;;;;;11.47;79.50;100463.41;103747;1291;110095;-80
2022/10/09 00:17:01;;;;;;;10.30;5.90;;;;;;;11.50;79.58;100467.53;103911;1282;108870;-79
2022/10/09 00:19:30;;;;;;;7.60;5.20;;;;;;;11.53;79.53;100465.89;103821;1295;138327;-80
2022/10/09 00:21:59;;;;;;;13.30;6.20;;;;;;;11.54;79.62;100467.41;103967;1288;96444;-79
2022/10/09 00:24:28;;;;;;;10.30;5.20;;;;;;;11.55;79.55;100475.91;103917;1291;140195;-79
2022/10/09 00:26:57;;;;;;;9.60;5.70;;;;;;;11.53;79.27;100475.78;104070;1289;108962;-80
2022/10/09 00:29:26;;;;;;;10.30;5.10;;;;;;;11.53;79.17;100474.77;103636;1289;138646;-80
2022/10/09 00:31:54;;;;;;;9.20;5.40;;;;;;;11.51;79.35;100474.30;103766;1278;108230;-80
2022/10/09 00:34:23;;;;;;;9.90;4.70;;;;;;;11.49;79.16;100470.52;104077;1289;97578;-79
2022/10/09 00:36:52;;;;;;;10.60;5.20;;;;;;;11.46;79.01;100463.61;103817;1290;139490;-80
2022/10/09 00:39:20;;;;;;;12.20;5.40;;;;;;;11.44;78.89;100463.88;103915;1289;108859;-80
2022/10/09 00:41:49;;;;;;;10.80;4.60;;;;;;;11.41;78.92;100462.77;103635;1292;139312;-80
2022/10/09 00:44:51;;;;;;;10.40;5.00;;;;;;;11.39;78.79;100462.84;103765;1288;107575;-79
2022/10/09 00:47:25;;;;;;;7.10;4.80;;;;;;;11.33;78.66;100462.67;103840;1288;95047;-80
2022/10/09 00:49:59;;;;;;;11.60;5.10;;;;;;;11.30;78.50;100466.61;103726;1295;96499;-80
2022/10/09 00:52:29;;;;;;;10.60;5.30;;;;;;;11.23;78.32;100471.33;103767;1289;109011;-81
2022/10/09 00:54:59;;;;;;;10.00;5.30;;;;;;;11.17;78.34;100477.83;103687;1284;138486;-80
2022/10/09 00:57:30;;;;;;;8.20;4.90;;;;;;;11.10;78.45;100476.25;103755;1288;108715;-80
2022/10/09 01:00:04;;;;;;;11.70;5.60;;;;;;;11.06;78.54;100484.58;104076;1294;138480;-80
2022/10/09 01:07:06;;;;;;;11.50;5.20;;;;;;;10.94;78.93;100490.34;103693;1291;138097;-80
2022/10/09 01:09:41;;;;;;;11.20;5.90;;;;;;;10.89;78.98;100490.64;103871;1296;106795;-80
2022/10/09 01:12:19;;;;;;;9.30;5.60;;;;;;;10.86;79.13;100491.61;103773;1288;139038;-80
2022/10/09 01:14:56;;;;;;;11.20;6.50;;;;;;;10.82;79.17;100497.65;103953;1291;96576;-80
2022/10/09 01:17:32;;;;;;;13.50;6.30;;;;;;;10.79;79.21;100503.14;103883;1291;138474;-74
2022/10/09 01:20:30;;;;;;;13.10;6.70;;;;;;;10.76;79.32;100501.64;103854;1271;110171;-79
2022/10/09 01:23:36;;;;;;;13.60;6.70;;;;;;;10.73;79.46;100506.92;103981;1294;107953;-80
2022/10/09 01:26:14;;;;;;;13.10;5.70;;;;;;;10.69;79.37;100509.48;103559;1291;106763;-80
2022/10/09 01:28:46;;;;;;;11.40;6.90;;;;;;;10.65;79.48;100511.88;103498;1297;96537;-80
2022/10/09 01:31:17;;;;;;;12.30;6.70;;;;;;;10.62;79.59;100513.19;103503;1297;138498;-79
2022/10/09 01:33:47;;;;;;;10.20;6.30;;;;;;;10.59;79.64;100512.89;103564;1291;109421;-80
2022/10/09 01:36:18;;;;;;;11.50;5.90;;;;;;;10.57;79.73;100517.45;103403;1292;138392;-81
2022/10/09 01:38:47;;;;;;;9.70;6.10;;;;;;;10.54;79.76;100516.85;103462;1292;106760;-81
2022/10/09 01:41:17;;;;;;;10.30;6.70;;;;;;;10.52;79.78;100518.15;103513;1292;96620;-80
2022/10/09 01:43:46;;;;;;;12.20;6.20;;;;;;;10.46;79.84;100517.63;103317;1284;138009;-80
2022/10/09 01:46:21;;;;;;;9.20;6.20;;;;;;;10.42;79.85;100517.04;103447;1297;109847;-79
2022/10/09 01:49:05;;;;;;;8.70;6.40;;;;;;;10.37;79.99;100521.52;103448;1300;138264;-80
2022/10/09 01:51:43;;;;;;;9.40;6.60;;;;;;;10.33;80.01;100523.17;103597;1292;107743;-80
2022/10/09 01:54:14;;;;;;;10.80;6.20;;;;;;;10.29;80.06;100524.33;103310;1299;138617;-80
2022/10/09 01:56:47;;;;;;;13.20;6.00;;;;;;;10.25;80.03;100528.61;103493;1286;97140;-79
2022/10/09 01:59:18;;;;;;;13.00;6.30;;;;;;;10.20;80.05;100532.89;103424;1292;110997;-79
2022/10/09 02:01:48;;;;;;;11.30;6.20;;;;;;;10.15;80.13;100534.75;103339;1291;138381;-79
2022/10/09 02:04:19;;;;;;;12.60;6.80;;;;;;;10.10;80.24;100538.52;103968;1291;108411;-79
2022/10/09 02:06:48;;;;;;;11.40;6.40;;;;;;;10.07;80.32;100543.65;103654;1289;139035;-80
2022/10/09 02:09:18;;;;;;;9.40;6.10;;;;;;;10.02;80.30;100545.66;103810;1294;96449;-79
2022/10/09 02:11:52;;;;;;;11.80;6.20;;;;;;;9.97;80.34;100549.95;103741;1285;138425;-79
2022/10/09 02:14:23;;;;;;;11.70;6.60;;;;;;;9.92;80.36;100551.47;103761;1288;107441;-79
2022/10/09 02:17:00;;;;;;;11.80;6.90;;;;;;;9.88;80.42;100554.01;103815;1295;106456;-79
2022/10/09 02:19:36;;;;;;;11.70;6.40;;;;;;;9.83;80.49;100556.02;103734;1288;138873;-79
2022/10/09 02:22:10;;;;;;;12.20;7.10;;;;;;;9.79;80.46;100560.15;103842;1288;96470;-80
2022/10/09 02:24:40;;;;;;;13.20;6.60;;;;;;;9.73;80.49;100557.16;103892;1294;138299;-80
2022/10/09 02:27:10;;;;;;;16.20;6.90;;;;;;;9.67;80.47;100556.23;104048;1290;107971;-80
2022/10/09 02:29:41;;;;;;;10.30;6.90;;;;;;;9.64;80.61;100563.77;103686;1292;138922;-79
2022/10/09 02:32:10;;;;;;;16.20;7.20;;;;;;;9.60;80.72;100566.48;103725;1296;97057;-79
2022/10/09 02:34:39;;;;;;;11.90;8.00;;;;;;;9.57;80.79;100569.87;103799;1289;96977;-80
2022/10/09 02:37:08;;;;;;;16.70;8.00;;;;;;;9.53;80.72;100576.04;103701;1288;138035;-79
2022/10/09 02:39:37;;;;;;;11.50;7.30;;;;;;;9.47;80.87;100579.10;103898;1288;106074;-80
2022/10/09 02:42:06;;;;;;;14.70;7.70;;;;;;;9.44;80.93;100582.30;103797;1294;138383;-80
2022/10/09 02:44:35;;;;;;;12.80;7.90;;;;;;;9.41;81.05;100587.39;103862;1288;97257;-80
2022/10/09 02:47:03;;;;;;;16.60;8.20;;;;;;;9.38;81.02;100587.64;103812;1289;97583;-80
2022/10/09 02:49:32;;;;;;;12.10;8.00;;;;;;;9.35;81.07;100593.95;104073;1288;138737;-81
2022/10/09 02:52:01;;;;;;;15.70;8.40;;;;;;;9.32;81.02;100594.52;103888;1296;107416;-80
2022/10/09 02:54:30;;;;;;;14.10;8.40;;;;;;;9.27;81.08;100597.42;103778;1296;141396;-80
2022/10/09 02:56:58;;;;;;;12.70;8.80;;;;;;;9.22;81.13;100600.48;103895;1295;97149;-80
2022/10/09 02:59:27;;;;;;;10.70;8.30;;;;;;;9.18;81.14;100603.52;103843;1289;96500;-80
2022/10/09 03:01:56;;;;;;;15.10;8.80;;;;;;;9.16;81.34;100607.21;104361;1261;110970;-80
2022/10/09 03:04:25;;;;;;;12.40;8.30;;;;;;;9.14;81.43;100612.27;103328;1293;107056;-80
2022/10/09 03:06:54;;;;;;;12.90;8.60;;;;;;;9.13;81.53;100615.76;104546;1286;138828;-80
2022/10/09 03:09:23;;;;;;;13.20;8.60;;;;;;;9.10;81.60;100615.45;103633;1291;96521;-79
2022/10/09 03:11:52;;;;;;;13.50;8.50;;;;;;;9.09;81.64;100616.00;103531;1291;139800;-80
2022/10/09 03:14:21;;;;;;;14.90;8.90;;;;;;;9.09;81.66;100615.48;103703;1299;108824;-80
2022/10/09 03:16:50;;;;;;;14.30;8.70;;;;;;;9.06;81.68;100620.41;103685;1285;107999;-80
2022/10/09 03:19:18;;;;;;;14.50;9.00;;;;;;;9.03;81.74;100623.75;103531;1294;138299;-80
2022/10/09 03:21:47;;;;;;;17.70;9.00;;;;;;;9.01;81.80;100628.13;103623;1291;96522;-80
2022/10/09 03:24:16;;;;;;;13.00;8.80;;;;;;;9.00;81.90;100629.19;103422;1293;138924;-79
2022/10/09 03:26:44;;;;;;;15.50;9.00;;;;;;;8.99;81.92;100630.27;103575;1284;109388;-80
2022/10/09 03:29:13;;;;;;;13.00;9.50;;;;;;;8.99;81.88;100630.27;103600;1293;107575;-79
2022/10/09 03:31:42;;;;;;;13.40;9.70;;;;;;;8.96;81.97;100634.98;103432;1293;139288;-80
2022/10/09 03:34:26;;;;;;;15.20;9.30;;;;;;;8.94;82.02;100637.46;103618;1291;97251;-80
2022/10/09 03:36:54;;;;;;;15.40;9.50;;;;;;;8.89;81.92;100637.73;103511;1298;139075;-81
2022/10/09 03:39:23;;;;;;;19.80;9.20;;;;;;;8.86;81.95;100641.09;103617;1293;109194;-80
2022/10/09 03:41:52;;;;;;;14.40;9.90;;;;;;;8.84;82.07;100635.08;103464;1291;138625;-80
2022/10/09 03:44:21;;;;;;;18.50;9.10;;;;;;;8.82;82.04;100634.93;103614;1299;108747;-80
2022/10/09 03:46:51;;;;;;;18.20;9.10;;;;;;;8.79;82.08;100639.64;103866;1285;97085;-80
2022/10/09 03:49:20;;;;;;;13.20;9.50;;;;;;;8.77;82.12;100639.70;103541;1285;137978;-80
2022/10/09 03:51:48;;;;;;;13.10;9.40;;;;;;;8.74;82.12;100646.16;103624;1296;109733;-80
2022/10/09 03:54:17;;;;;;;17.70;9.60;;;;;;;8.72;82.13;100656.08;103555;1291;139795;-80
2022/10/09 03:56:46;;;;;;;16.00;10.00;;;;;;;8.70;82.23;100658.36;103589;1291;106668;-80
2022/10/09 03:59:14;;;;;;;14.00;9.30;;;;;;;8.69;82.24;100665.67;103633;1291;96473;-80
2022/10/09 04:01:43;;;;;;;15.20;9.20;;;;;;;8.69;82.55;100664.96;103559;1298;138651;-80
2022/10/09 04:04:12;;;;;;;16.00;9.00;;;;;;;8.70;82.52;100666.34;103555;1283;110172;-80
2022/10/09 04:06:40;;;;;;;15.00;9.20;;;;;;;8.70;82.48;100670.15;103398;1291;138263;-79
2022/10/09 04:09:10;;;;;;;16.60;9.00;;;;;;;8.70;82.39;100665.31;103380;1286;107208;-79
2022/10/09 04:11:38;;;;;;;16.10;9.20;;;;;;;8.69;82.46;100668.09;103339;1294;138304;-82
2022/10/09 04:14:07;;;;;;;16.90;8.60;;;;;;;8.69;82.39;100670.88;103464;1293;98083;-81
2022/10/09 04:16:36;;;;;;;12.30;8.60;;;;;;;8.68;82.47;100668.46;103494;1293;110135;-80
2022/10/09 04:19:05;;;;;;;18.30;8.60;;;;;;;8.69;82.56;100664.64;103412;1293;138161;-80
2022/10/09 04:21:33;;;;;;;15.20;8.80;;;;;;;8.70;82.58;100670.52;103459;1293;106614;-78
2022/10/09 04:24:02;;;;;;;9.80;8.80;;;;;;;8.70;82.55;100672.92;103293;1293;138404;-79
2022/10/09 04:26:31;;;;;;;14.50;8.60;;;;;;;8.70;82.58;100672.41;103434;1300;96986;-80
2022/10/09 04:29:00;;;;;;;12.40;8.90;;;;;;;8.71;82.65;100676.02;103396;1293;109102;-79
2022/10/09 04:31:28;;;;;;;16.40;9.80;;;;;;;8.73;82.74;100674.77;103470;1291;138121;-81
2022/10/09 04:33:57;;;;;;;15.60;9.20;;;;;;;8.77;82.86;100675.39;103513;1296;107337;-81
2022/10/09 04:36:26;;;;;;;14.50;10.00;;;;;;;8.79;82.77;100682.11;103420;1284;138682;-79
2022/10/09 04:38:54;;;;;;;15.60;9.70;;;;;;;8.82;82.85;100684.52;103518;1291;95093;-79
2022/10/09 04:41:23;;;;;;;16.80;9.40;;;;;;;8.85;82.94;100685.68;103520;1291;110297;-77
2022/10/09 04:43:55;;;;;;;19.90;10.10;;;;;;;8.87;82.86;100685.98;103470;1291;138086;-80
2022/10/09 04:46:24;;;;;;;12.90;9.60;;;;;;;8.89;82.82;100689.40;103557;1291;108714;-77
2022/10/09 04:48:53;;;;;;;14.30;9.70;;;;;;;8.91;82.85;100698.20;103402;1293;138398;-78
2022/10/09 04:51:22;;;;;;;19.10;10.10;;;;;;;8.92;82.82;100702.00;103537;1283;97004;-78
2022/10/09 04:53:51;;;;;;;17.10;10.90;;;;;;;8.93;82.85;100707.36;103479;1299;138398;-77
2022/10/09 04:56:23;;;;;;;16.30;11.00;;;;;;;8.95;82.82;100710.80;103540;1293;107451;-79
2022/10/09 04:58:52;;;;;;;16.90;11.60;;;;;;;8.96;82.82;100713.54;103547;1293;107795;-79
2022/10/09 05:01:23;;;;;;;18.70;11.90;;;;;;;8.98;82.82;100714.39;103441;1283;138461;-76
2022/10/09 05:03:52;;;;;;;17.60;12.10;;;;;;;8.98;82.68;100716.13;103550;1291;96483;-79
2022/10/09 05:06:23;;;;;;;16.00;11.50;;;;;;;8.98;82.67;100718.56;103444;1291;137230;-78
2022/10/09 05:08:52;;;;;;;18.30;12.90;;;;;;;9.00;82.68;100724.95;103558;1293;107568;-79
2022/10/09 05:11:22;;;;;;;16.90;11.70;;;;;;;9.01;82.74;100724.06;103496;1291;107104;-76
2022/10/09 05:13:53;;;;;;;16.50;12.10;;;;;;;9.01;82.53;100732.20;103436;1283;140268;-78
2022/10/09 05:16:24;;;;;;;18.30;11.70;;;;;;;9.00;82.48;100740.21;103427;1287;97718;-78
2022/10/09 05:18:55;;;;;;;18.60;12.40;;;;;;;9.00;82.54;100746.28;103421;1284;138814;-78
2022/10/09 05:21:27;;;;;;;19.30;12.80;;;;;;;9.01;82.62;100755.96;103462;1291;107789;-77
2022/10/09 05:23:56;;;;;;;20.90;12.50;;;;;;;9.04;82.59;100752.27;103421;1298;139553;-78
2022/10/09 05:26:26;;;;;;;16.10;12.00;;;;;;;9.06;82.54;100753.27;103564;1297;97834;-80
2022/10/09 05:28:55;;;;;;;16.60;12.80;;;;;;;9.05;82.38;100762.65;103530;1291;98019;-78
2022/10/09 05:31:26;;;;;;;18.50;12.50;;;;;;;9.06;82.45;100766.79;103464;1297;138493;-76
2022/10/09 05:33:58;;;;;;;17.80;12.30;;;;;;;9.07;82.52;100769.38;103591;1291;107692;-77
2022/10/09 05:36:27;;;;;;;16.30;11.70;;;;;;;9.10;82.46;100768.45;103373;1291;138616;-77
2022/10/09 05:39:00;;;;;;;16.90;13.10;;;;;;;9.11;82.30;100767.05;103492;1283;97846;-79
2022/10/09 05:41:29;;;;;;;16.20;12.70;;;;;;;9.13;82.25;100779.34;103503;1289;97852;-79
2022/10/09 05:44:01;;;;;;;16.00;12.70;;;;;;;9.15;82.28;100782.61;103485;1297;111089;-80
2022/10/09 05:46:30;;;;;;;16.70;12.60;;;;;;;9.18;82.30;100786.20;103511;1283;108990;-80
2022/10/09 05:49:04;;;;;;;16.70;12.40;;;;;;;9.20;82.18;100792.41;103387;1291;139051;-80
2022/10/09 05:51:34;;;;;;;21.50;12.80;;;;;;;9.21;82.11;100792.39;103453;1291;97835;-79
2022/10/09 05:54:05;;;;;;;18.30;12.60;;;;;;;9.24;82.12;100797.72;103420;1297;138582;-80
2022/10/09 05:56:35;;;;;;;18.10;13.30;;;;;;;9.27;82.09;100800.95;103551;1293;110996;-80
2022/10/09 05:59:06;;;;;;;20.80;13.60;;;;;;;9.30;82.19;100804.71;103545;1293;107954;-78
2022/10/09 06:01:37;;;;;;;18.50;13.10;;;;;;;9.34;82.19;100811.77;103416;1287;139130;-76
2022/10/09 06:04:09;;;;;;;17.10;13.70;;;;;;;9.37;82.01;100815.19;103526;1291;97896;-80
2022/10/09 06:06:39;;;;;;;17.30;12.30;;;;;;;9.39;81.94;100816.53;103400;1288;138437;-79
2022/10/09 06:09:10;;;;;;;18.90;14.10;;;;;;;9.42;81.81;100818.04;103542;1291;111779;-80
2022/10/09 06:11:40;;;;;;;23.70;15.20;;;;;;;9.43;81.60;100828.42;103434;1293;139351;-80
2022/10/09 06:14:12;;;;;;;16.30;13.70;;;;;;;9.46;81.67;100832.36;103499;1290;106911;-77
2022/10/09 06:16:42;;;;;;;25.50;15.10;;;;;;;9.49;81.60;100832.66;103652;1298;97817;-77
2022/10/09 06:19:12;;;;;;;18.20;14.00;;;;;;;9.52;81.59;100835.04;103479;1292;138502;-78
2022/10/09 06:21:41;;;;;;;19.60;14.00;;;;;;;9.54;81.44;100835.00;103523;1290;110317;-76
2022/10/09 06:24:18;;;;;;;17.80;14.50;;;;;;;9.56;81.37;100838.10;103428;1296;138766;-78
2022/10/09 06:26:50;;;;;;;18.30;14.40;;;;;;;9.57;81.18;100838.26;103527;1285;107240;-77
2022/10/09 06:29:19;;;;;;;20.70;14.90;;;;;;;9.58;81.19;100843.09;103561;1293;97811;-76
2022/10/09 06:31:47;;;;;;;19.70;14.50;;;;;;;9.61;80.99;100843.89;103432;1293;138251;-78
2022/10/09 06:34:16;;;;;;;22.70;14.60;;;;;;;9.63;80.86;100845.75;103574;1291;109383;-78
2022/10/09 06:36:45;;;;;;;17.50;14.50;;;;;;;9.65;80.69;100850.74;103430;1291;138554;-78
2022/10/09 06:39:14;;;;;;;18.00;13.60;;;;;;;9.66;80.36;100858.55;103561;1284;108135;-78
2022/10/09 06:41:42;;;;;;;18.50;14.90;;;;;;;9.69;80.34;100869.61;103426;1290;139341;-78
2022/10/09 06:44:46;;;;;;;16.40;12.80;;;;;;;9.72;80.21;100872.70;103429;1297;98331;-78
2022/10/09 06:47:15;;;;;;;13.00;11.30;;;;;;;9.73;79.84;100879.80;103560;1299;110885;-77
2022/10/09 06:49:44;;;;;;;13.40;9.70;;;;;;;9.73;79.54;100879.64;103389;1293;140652;-78
2022/10/09 06:52:12;;;;;;;15.50;10.50;;;;;;;9.73;79.27;100884.48;103515;1292;107768;-78
2022/10/09 06:54:41;;;;;;;12.50;10.10;;;;;;;9.75;79.33;100891.92;103447;1284;138768;-77
2022/10/09 06:57:10;;;;;;;16.90;10.90;;;;;;;9.78;79.27;100896.38;103562;1291;97789;-78
2022/10/09 06:59:39;;;;;;;13.00;11.10;;;;;;;9.82;79.29;100903.75;103409;1291;138741;-78
2022/10/09 07:02:08;;;;;;;12.30;11.00;;;;;;;9.87;79.32;100912.52;103486;1292;107712;-78
2022/10/09 07:04:38;;;;;;;13.80;10.30;;;;;;;9.91;79.13;100911.25;103396;1294;106884;-78
2022/10/09 07:07:06;;;;;;;12.80;8.80;;;;;;;9.96;79.02;100912.36;103416;1293;138605;-78
2022/10/09 07:09:36;;;;;;;11.10;8.70;;;;;;;9.99;78.78;100920.63;103537;1292;97850;-78
2022/10/09 07:12:05;;;;;;;10.90;8.60;;;;;;;10.03;78.51;100920.91;103482;1291;140383;-79
2022/10/09 07:14:33;;;;;;;12.80;8.20;;;;;;;10.04;78.12;100921.23;103516;1291;107639;-78
2022/10/09 07:17:04;;;;;;;10.30;7.80;;;;;;;10.04;78.02;100925.40;103534;1290;107473;-78
2022/10/09 07:19:33;;;;;;;13.30;7.70;;;;;;;10.05;77.97;100924.34;103399;1294;138811;-77
2022/10/09 07:22:02;;;;;;;12.60;7.80;;;;;;;10.08;77.77;100926.39;103552;1291;97834;-78
2022/10/09 07:24:31;;;;;;;12.20;7.90;;;;;;;10.09;77.52;100928.45;103422;1299;138470;-77
2022/10/09 07:27:00;;;;;;;8.60;7.40;;;;;;;10.11;77.35;100926.48;103531;1283;107978;-78
2022/10/09 07:29:29;;;;;;;9.30;6.90;;;;;;;10.14;77.31;100932.16;103497;1293;107998;-77
2022/10/09 07:31:58;;;;;;;9.00;7.20;;;;;;;10.15;76.83;100933.36;103480;1293;97811;-78
2022/10/09 07:34:26;;;;;;;10.00;7.40;;;;;;;10.16;76.86;100932.98;103519;1283;98079;-78
2022/10/09 07:36:55;;;;;;;11.90;7.40;;;;;;;10.19;76.72;100934.33;103387;1284;139320;-78
2022/10/09 07:39:24;;;;;;;10.00;7.70;;;;;;;10.24;76.75;100933.58;103486;1294;107414;-77
2022/10/09 07:41:54;;;;;;;9.80;7.30;;;;;;;10.29;76.74;100936.94;103407;1291;139592;-78
2022/10/09 07:44:23;;;;;;;12.70;9.00;;;;;;;10.35;76.64;100941.16;103468;1293;97840;-78
2022/10/09 07:46:52;;;;;;;11.20;8.40;;;;;;;10.40;76.70;100944.55;103467;1288;97717;-78
2022/10/09 07:49:21;;;;;;;12.90;9.90;;;;;;;10.46;76.79;100944.59;103402;1299;139153;-78
2022/10/09 07:51:50;;;;;;;12.60;10.10;;;;;;;10.55;76.88;100946.30;103539;1291;106749;-78
2022/10/09 07:54:19;;;;;;;14.90;10.00;;;;;;;10.67;76.74;100946.42;103386;1294;138909;-79
2022/10/09 07:56:48;;;;;;;12.00;9.70;;;;;;;10.76;76.50;100952.65;103497;1283;98278;-78
2022/10/09 07:59:17;;;;;;;15.00;10.40;;;;;;;10.76;75.97;100958.04;103540;1293;97728;-79
2022/10/09 08:01:46;;;;;;;12.00;10.40;;;;;;;10.76;75.97;100960.13;103564;1298;139001;-79
2022/10/09 08:04:15;;;;;;;13.30;11.60;;;;;;;10.77;75.85;100960.11;103594;1291;107514;-79
2022/10/09 08:06:44;;;;;;;14.20;11.50;;;;;;;10.75;75.75;100964.48;103464;1297;138732;-79
2022/10/09 08:09:13;;;;;;;15.50;12.00;;;;;;;10.71;75.75;100968.77;103516;1293;97825;-79
2022/10/09 08:11:43;;;;;;;13.90;11.70;;;;;;;10.71;75.92;100973.27;103454;1291;138838;-78
2022/10/09 08:14:14;;;;;;;12.70;11.40;;;;;;;10.73;76.00;100977.41;103501;1290;110267;-79
2022/10/09 08:16:48;;;;;;;15.10;11.20;;;;;;;10.73;76.02;100982.11;103527;1298;106945;-78
2022/10/09 08:19:17;;;;;;;15.40;12.40;;;;;;;10.72;75.87;100991.71;103473;1290;139235;-79
2022/10/09 08:21:46;;;;;;;14.70;10.30;;;;;;;10.71;75.67;100991.20;103532;1293;99771;-79
2022/10/09 08:24:15;;;;;;;12.20;9.60;;;;;;;10.72;75.73;100993.94;103399;1295;140336;-78
2022/10/09 08:26:44;;;;;;;13.60;8.30;;;;;;;10.80;75.68;100994.85;103553;1293;111229;-79
2022/10/09 08:29:15;;;;;;;9.10;7.70;;;;;;;10.86;75.30;100996.27;103500;1291;107809;-78
2022/10/09 08:31:45;;;;;;;12.30;8.80;;;;;;;10.90;75.18;101000.36;103336;1293;138567;-77
2022/10/09 08:34:14;;;;;;;8.60;7.70;;;;;;;10.92;75.08;101002.05;103557;1284;97929;-78
2022/10/09 08:36:43;;;;;;;10.50;7.60;;;;;;;10.93;74.96;101005.16;103442;1298;138387;-79
2022/10/09 08:39:13;;;;;;;8.60;7.60;;;;;;;10.92;74.77;101005.36;103469;1291;111320;-79
2022/10/09 08:41:46;;;;;;;13.80;8.00;;;;;;;10.92;74.86;101008.50;103416;1287;138590;-79
2022/10/09 08:44:20;;;;;;;15.20;9.70;;;;;;;10.92;74.82;101009.89;103501;1283;109774;-79
2022/10/09 08:47:04;;;;;;;13.00;10.60;;;;;;;10.89;74.66;101014.48;103478;1300;97852;-79
2022/10/09 08:49:41;;;;;;;14.80;10.30;;;;;;;10.84;74.54;101019.27;103397;1281;138615;-77
2022/10/09 08:52:22;;;;;;;12.70;10.10;;;;;;;10.82;74.75;101021.94;103462;1291;112020;-79
2022/10/09 08:54:55;;;;;;;16.80;10.80;;;;;;;10.82;74.57;101025.42;103381;1294;138816;-78
2022/10/09 08:57:30;;;;;;;14.00;10.30;;;;;;;10.86;74.77;101031.77;103749;1293;108020;-77
2022/10/09 08:59:59;;;;;;;13.50;10.20;;;;;;;10.92;74.76;101027.11;103398;1300;138887;-77
2022/10/09 09:02:44;;;;;;;12.00;10.30;;;;;;;11.01;74.50;101027.47;103544;1298;97934;-78
2022/10/09 09:05:29;;;;;;;11.90;9.40;;;;;;;11.12;74.36;101027.91;103503;1300;111965;-78
2022/10/09 09:08:10;;;;;;;12.80;8.60;;;;;;;11.34;74.01;101025.14;103461;1281;107836;-78
2022/10/09 09:10:42;;;;;;;10.30;8.00;;;;;;;11.55;73.58;101024.64;103497;1300;107156;-78
2022/10/09 09:13:30;;;;;;;9.00;8.00;;;;;;;11.65;72.80;101024.41;103693;1299;138775;-78
2022/10/09 09:16:08;;;;;;;10.10;7.50;;;;;;;11.68;72.52;101029.41;103507;1294;97740;-78
2022/10/09 09:18:44;;;;;;;7.80;6.50;;;;;;;11.65;72.21;101030.84;103447;1291;138560;-78
2022/10/09 09:21:31;;;;;;;8.40;6.30;;;;;;;11.63;71.92;101032.30;103461;1291;108007;-79
2022/10/09 09:24:02;;;;;;;10.90;6.50;;;;;;;11.58;71.84;101034.52;104152;1291;138851;-79
2022/10/09 09:26:31;;;;;;;10.70;6.70;;;;;;;11.54;71.85;101039.14;103506;1296;97831;-79
2022/10/09 09:29:04;;;;;;;7.20;6.00;;;;;;;11.52;71.78;101039.20;103504;1291;97835;-78
2022/10/09 09:31:37;;;;;;;9.20;6.60;;;;;;;11.52;71.73;101039.36;103377;1299;138392;-78
2022/10/09 09:34:13;;;;;;;8.00;6.00;;;;;;;11.59;71.97;101043.03;103552;1296;107284;-78
2022/10/09 09:36:49;;;;;;;11.10;5.70;;;;;;;11.68;71.87;101043.50;103415;1284;139180;-79
2022/10/09 09:39:20;;;;;;;10.60;5.80;;;;;;;11.77;71.57;101045.39;103465;1298;97871;-79
2022/10/09 09:42:15;;;;;;;5.70;5.00;;;;;;;11.85;71.38;101049.94;103435;1291;138573;-79
2022/10/09 09:44:50;;;;;;;8.00;5.90;;;;;;;11.90;71.07;101049.11;103532;1297;110845;-79
2022/10/09 09:47:27;;;;;;;9.70;5.50;;;;;;;11.91;70.92;101051.85;103544;1291;108780;-81
2022/10/09 09:49:58;;;;;;;7.80;6.30;;;;;;;11.93;70.65;101052.69;103434;1293;138230;-80
2022/10/09 09:52:31;;;;;;;11.70;6.60;;;;;;;11.94;70.73;101060.86;103454;1291;98190;-80
2022/10/09 09:55:00;;;;;;;9.20;6.20;;;;;;;11.97;70.83;101058.16;103390;1293;138462;-79
2022/10/09 09:57:34;;;;;;;10.00;6.20;;;;;;;12.03;70.88;101062.02;103527;1291;111277;-80
2022/10/09 10:00:20;;;;;;;9.70;6.80;;;;;;;12.09;70.66;101062.75;104429;1287;138897;-80
2022/10/09 10:03:00;;;;;;;8.90;5.90;;;;;;;12.17;70.51;101063.05;103517;1291;107213;-80
2022/10/09 10:05:35;;;;;;;7.30;5.50;;;;;;;12.23;70.15;101062.05;103450;1291;97844;-80
2022/10/09 10:08:15;;;;;;;7.60;5.70;;;;;;;12.26;69.90;101065.80;104805;1297;95956;-79
2022/10/09 10:10:49;;;;;;;9.30;6.90;;;;;;;12.26;69.95;101072.59;103540;1299;111790;-80
2022/10/09 10:13:20;;;;;;;10.80;7.60;;;;;;;12.24;70.02;101072.13;103357;1291;138577;-81
2022/10/09 10:15:56;;;;;;;10.00;7.80;;;;;;;12.19;69.98;101076.94;103388;1293;108172;-81
2022/10/09 10:18:28;;;;;;;10.80;7.70;;;;;;;12.10;70.02;101081.20;103372;1291;140422;-81
2022/10/09 10:21:02;;;;;;;13.60;8.10;;;;;;;12.01;69.99;101082.29;103575;1290;97944;-81
2022/10/09 10:23:37;;;;;;;11.10;8.20;;;;;;;11.90;70.10;101081.52;103479;1299;110390;-82
2022/10/09 10:26:14;;;;;;;9.90;8.20;;;;;;;11.81;70.36;101083.46;103536;1299;106704;-81
2022/10/09 10:28:51;;;;;;;13.90;8.20;;;;;;;11.77;70.72;101084.06;103516;1284;107826;-80
2022/10/09 10:31:49;;;;;;;12.70;8.30;;;;;;;11.73;70.65;101085.91;103390;1301;138955;-79
2022/10/09 10:34:23;;;;;;;9.30;7.50;;;;;;;11.66;70.74;101089.89;103547;1290;98615;-78
2022/10/09 10:36:59;;;;;;;9.20;7.40;;;;;;;11.62;70.40;101088.59;103424;1291;138406;-79
2022/10/09 10:39:41;;;;;;;9.70;7.10;;;;;;;11.59;70.52;101094.57;103495;1297;108215;-78
2022/10/09 10:42:13;;;;;;;;;;;;;;;11.65;70.62;101093.76;103426;1290;139369;-78
2022/10/09 10:44:49;;;;;;;9.00;5.10;;;;;;;11.75;70.45;101094.92;103529;1298;97850;-79
2022/10/09 10:47:25;;;;;;;6.40;4.40;;;;;;;11.87;70.20;101096.74;103488;1291;97723;-78
2022/10/09 10:49:54;;;;;;;8.00;4.10;;;;;;;11.98;69.77;101102.40;103380;1293;138841;-78
2022/10/09 10:52:39;;;;;;;7.90;4.00;;;;;;;12.02;69.10;101103.70;103487;1292;107117;-78
2022/10/09 10:55:26;;;;;;;4.90;3.70;;;;;;;12.04;68.92;101106.45;103381;1300;138628;-78
2022/10/09 10:58:02;;;;;;;12.40;4.60;;;;;;;12.03;68.70;101105.42;103466;1291;97935;-78
2022/10/09 11:00:38;;;;;;;8.60;4.50;;;;;;;12.04;68.69;101108.02;103383;1305;138934;-79
2022/10/09 11:03:20;;;;;;;10.60;4.90;;;;;;;12.04;68.60;101110.64;103329;1293;176430;-81
2022/10/09 11:05:54;;;;;;;8.40;5.60;;;;;;;11.99;68.51;101113.88;103449;1293;139395;-79
2022/10/09 11:08:39;;;;;;;12.00;6.40;;;;;;;11.96;68.82;101117.09;103911;1293;107705;-78
2022/10/09 11:11:15;;;;;;;9.10;7.60;;;;;;;11.93;68.97;101113.86;103549;1299;97918;-78
2022/10/09 11:13:55;;;;;;;13.30;7.80;;;;;;;11.91;69.13;101113.73;103379;1305;138234;-78
2022/10/09 11:16:38;;;;;;;12.10;8.20;;;;;;;11.90;69.43;101113.23;103718;1297;110381;-78
2022/10/09 11:19:19;;;;;;;13.90;8.70;;;;;;;11.91;69.64;101109.89;103407;1290;138556;-78
2022/10/09 11:21:58;;;;;;;10.60;8.40;;;;;;;11.93;69.48;101110.55;103548;1292;107802;-79
2022/10/09 11:24:53;;;;;;;12.30;8.10;;;;;;;11.94;69.47;101103.89;103396;1301;138590;-78
2022/10/09 11:27:29;;;;;;;12.10;8.20;;;;;;;11.97;69.48;101104.70;103528;1291;98332;-78
2022/10/09 11:30:01;;;;;;;9.70;8.00;;;;;;;11.98;69.52;101104.33;103544;1298;138657;-79
2022/10/09 11:32:35;;;;;;;12.20;7.90;;;;;;;11.99;69.48;101104.47;103537;1292;108639;-78
2022/10/09 11:35:13;;;;;;;12.40;8.00;;;;;;;12.03;69.56;101106.65;103464;1284;108641;-78